Terminal Aerodrome Forecast
Issued by NWS New Orleans/Baton Rouge, LA

Current Version | Previous Version | Text Only | Print | Product List | Glossary On
Versions: 1 2 3 4 5 6 7 8 9 10 11 12 13
000
FTUS44 KLIX 292336
TAFBTR
TAF
KBTR 292336Z 3000/3024 19011KT P6SM BKN050
     FM300200 18006KT P6SM FEW025
     FM301000 VRB03KT 4SM BR SCT025
      TEMPO 3010/3013 2SM BR BKN020
     FM301400 26005KT P6SM SCT030
     FM301800 26008KT P6SM BKN035 BKN250=

USA.gov is the U.S. government's official web portal to all federal, state and local government web resources and services.